Time;durP1;ratioP1;P1;durP2;ratioP2;P2;SDS_P1;SDS_P2;PMS_P1;PMS_P2;Temp;Humidity;BMP_temperature;BMP_pressure;BME280_temperature;BME280_humidity;BME280_pressure;Samples;Min_cycle;Max_cycle;Signal;HPM_P1;HPM_P2
2022/12/27 00:02:00;;;;;;;24.70;12.00;;;;;;;;;;6227001;28;20085;-70
2022/12/27 00:05:00;;;;;;;23.42;10.85;;;;;;;;;;6228874;28;20184;-70
2022/12/27 00:08:01;;;;;;;23.00;11.15;;;;;;;;;;6225364;28;20045;-64
2022/12/27 00:11:11;;;;;;;25.38;11.88;;;;;;;;;;6221791;28;20118;-67
2022/12/27 00:14:11;;;;;;;23.55;10.27;;;;;;;;;;6224020;28;20041;-72
2022/12/27 00:17:12;;;;;;;23.13;10.18;;;;;;;;;;6226356;28;20116;-63
2022/12/27 00:20:12;;;;;;;26.45;10.77;;;;;;;;;;6224518;28;20052;-72
2022/12/27 00:23:13;;;;;;;22.75;10.02;;;;;;;;;;6227168;28;20059;-73
2022/12/27 00:26:18;;;;;;;24.35;10.27;;;;;;;;;;6221948;28;20056;-71
2022/12/27 00:29:19;;;;;;;20.50;10.00;;;;;;;;;;6225373;28;20041;-69
2022/12/27 00:32:20;;;;;;;23.33;10.50;;;;;;;;;;6224648;28;20925;-68
2022/12/27 00:35:20;;;;;;;22.10;9.23;;;;;;;;;;6226538;28;20041;-69
2022/12/27 00:38:22;;;;;;;22.23;9.73;;;;;;;;;;6224528;28;20049;-71
2022/12/27 00:41:24;;;;;;;;;;;;;;;;;;6227160;28;20851;-72
2022/12/27 00:44:24;;;;;;;22.40;9.77;;;;;;;;;;6225153;28;19929;-70
2022/12/27 00:47:25;;;;;;;22.05;9.45;;;;;;;;;;6226137;28;20072;-69
2022/12/27 00:50:26;;;;;;;20.45;9.60;;;;;;;;;;6223729;28;20737;-73
2022/12/27 00:53:28;;;;;;;19.40;8.90;;;;;;;;;;6226873;28;20486;-72
2022/12/27 00:56:29;;;;;;;25.90;11.63;;;;;;;;;;6226125;28;20073;-70
2022/12/27 00:59:30;;;;;;;21.42;9.48;;;;;;;;;;6223090;28;20049;-71
2022/12/27 01:02:31;;;;;;;26.83;11.40;;;;;;;;;;6222570;28;20614;-72
2022/12/27 01:05:36;;;;;;;26.13;10.60;;;;;;;;;;6221822;28;20073;-70
2022/12/27 01:08:37;;;;;;;22.25;9.77;;;;;;;;;;6226083;28;20095;-72
2022/12/27 01:11:39;;;;;;;23.40;10.20;;;;;;;;;;6225675;28;20053;-67
2022/12/27 01:14:40;;;;;;;22.80;9.63;;;;;;;;;;6224311;28;20050;-73
2022/12/27 01:17:40;;;;;;;22.60;10.98;;;;;;;;;;6225505;28;20601;-71
2022/12/27 01:20:41;;;;;;;22.42;10.18;;;;;;;;;;6220304;28;20614;-70
2022/12/27 01:23:42;;;;;;;21.23;9.82;;;;;;;;;;6227070;28;20049;-69
2022/12/27 01:26:42;;;;;;;21.17;9.98;;;;;;;;;;6225645;28;20142;-72
2022/12/27 01:29:43;;;;;;;20.65;10.15;;;;;;;;;;6224129;28;20131;-71
2022/12/27 01:32:44;;;;;;;23.77;10.48;;;;;;;;;;6223837;28;20069;-73
2022/12/27 01:35:44;;;;;;;21.58;9.20;;;;;;;;;;6224486;28;20049;-72
2022/12/27 01:38:46;;;;;;;19.92;8.43;;;;;;;;;;6223772;28;20139;-73
2022/12/27 01:45:16;;;;;;;14.70;7.20;;;;;;;;;;6224045;28;19925;-69
2022/12/27 01:48:20;;;;;;;14.70;7.07;;;;;;;;;;6246533;28;20406;-64
2022/12/27 01:51:21;;;;;;;14.63;7.38;;;;;;;;;;6244660;28;20076;-64
2022/12/27 01:54:22;;;;;;;15.38;7.15;;;;;;;;;;6238556;28;20057;-63
2022/12/27 01:57:23;;;;;;;14.55;6.57;;;;;;;;;;6241714;28;20106;-64
2022/12/27 02:00:24;;;;;;;14.70;7.20;;;;;;;;;;6260847;28;20049;-65
2022/12/27 02:03:36;;;;;;;16.13;8.02;;;;;;;;;;6245234;28;20348;-64
2022/12/27 02:06:39;;;;;;;20.70;9.15;;;;;;;;;;6247572;28;20053;-64
2022/12/27 02:09:46;;;;;;;22.20;10.38;;;;;;;;;;6268735;28;20051;-64
2022/12/27 02:12:48;;;;;;;22.38;11.55;;;;;;;;;;6251208;28;20045;-64
2022/12/27 02:15:49;;;;;;;21.42;10.60;;;;;;;;;;6240782;28;20084;-64
2022/12/27 02:18:50;;;;;;;20.90;10.65;;;;;;;;;;6246818;28;20040;-65
2022/12/27 02:22:21;;;;;;;23.60;11.15;;;;;;;;;;6246687;28;20045;-65
2022/12/27 02:25:24;;;;;;;21.13;10.70;;;;;;;;;;6232046;28;20049;-65
2022/12/27 02:28:43;;;;;;;24.73;11.32;;;;;;;;;;6243455;28;20049;-64
2022/12/27 02:31:44;;;;;;;20.65;10.23;;;;;;;;;;6248030;28;20055;-64
2022/12/27 02:35:00;;;;;;;23.38;10.90;;;;;;;;;;6245561;28;20045;-64
2022/12/27 02:38:11;;;;;;;24.77;10.60;;;;;;;;;;6244938;28;20053;-64
2022/12/27 02:55:11;;;;;;;17.55;9.80;;;;;;;;;;6247251;28;20095;-68
2022/12/27 02:58:38;;;;;;;19.92;9.82;;;;;;;;;;6245620;28;20052;-64
2022/12/27 03:03:19;;;;;;;20.17;9.90;;;;;;;;;;6244103;28;20046;-70
2022/12/27 03:16:57;;;;;;;12.88;6.38;;;;;;;;;;6257393;28;20069;-64
2022/12/27 03:26:47;;;;;;;11.98;6.63;;;;;;;;;;6242517;28;20480;-64
2022/12/27 03:33:11;;;;;;;13.38;7.47;;;;;;;;;;6244801;28;20064;-65
2022/12/27 03:39:42;;;;;;;11.88;6.57;;;;;;;;;;6247864;28;20434;-64
2022/12/27 03:50:14;;;;;;;10.88;5.07;;;;;;;;;;6243275;28;20630;-65
2022/12/27 03:53:20;;;;;;;12.57;6.00;;;;;;;;;;6240387;28;20489;-63
2022/12/27 03:56:20;;;;;;;9.45;4.30;;;;;;;;;;6240340;28;20076;-64
2022/12/27 03:59:22;;;;;;;7.75;3.60;;;;;;;;;;6241076;28;20191;-64
2022/12/27 04:02:22;;;;;;;5.40;2.50;;;;;;;;;;6244493;28;20053;-65
2022/12/27 04:05:23;;;;;;;6.20;2.80;;;;;;;;;;6245289;28;20538;-64
2022/12/27 04:34:57;;;;;;;5.68;2.63;;;;;;;;;;6240168;28;20521;-65
2022/12/27 04:37:58;;;;;;;9.35;2.50;;;;;;;;;;6240475;28;20148;-64
2022/12/27 04:57:39;;;;;;;6.88;3.38;;;;;;;;;;6241544;28;20046;-63
2022/12/27 05:04:00;;;;;;;6.00;2.88;;;;;;;;;;6246726;28;20048;-64
2022/12/27 05:13:58;;;;;;;6.22;2.85;;;;;;;;;;6263421;28;20106;-64
2022/12/27 05:13:58;;;;;;;6.53;3.03;;;;;;;;;;6251660;28;20049;-64
2022/12/27 05:16:59;;;;;;;7.05;2.80;;;;;;;;;;6240705;28;20128;-64
2022/12/27 05:19:59;;;;;;;9.05;3.35;;;;;;;;;;6241998;28;20419;-64
2022/12/27 05:26:21;;;;;;;10.68;3.95;;;;;;;;;;6240537;28;21401;-63
2022/12/27 05:29:22;;;;;;;9.35;3.92;;;;;;;;;;6247756;28;20109;-64
2022/12/27 05:32:23;;;;;;;8.63;3.80;;;;;;;;;;6259584;28;20045;-64
2022/12/27 05:35:23;;;;;;;9.02;4.18;;;;;;;;;;6270155;28;20069;-64
2022/12/27 05:38:24;;;;;;;9.88;4.22;;;;;;;;;;6256385;28;20044;-64
2022/12/27 05:41:25;;;;;;;9.10;3.72;;;;;;;;;;6246453;28;20127;-64
2022/12/27 05:44:25;;;;;;;9.10;3.97;;;;;;;;;;6245344;28;20049;-63
2022/12/27 05:47:26;;;;;;;8.20;3.53;;;;;;;;;;6244824;28;20073;-64
2022/12/27 05:50:26;;;;;;;7.47;2.90;;;;;;;;;;6246168;28;20053;-64
2022/12/27 05:53:27;;;;;;;8.00;3.00;;;;;;;;;;6245870;28;20472;-64
2022/12/27 05:56:28;;;;;;;8.55;3.08;;;;;;;;;;6245960;28;20328;-64
2022/12/27 05:59:28;;;;;;;5.15;2.75;;;;;;;;;;6245641;28;20132;-64
2022/12/27 06:02:29;;;;;;;6.75;2.60;;;;;;;;;;6246183;28;20083;-63
2022/12/27 06:05:29;;;;;;;8.13;2.78;;;;;;;;;;6244050;28;20172;-63
2022/12/27 06:08:30;;;;;;;7.97;2.13;;;;;;;;;;6243958;28;20124;-63
2022/12/27 06:11:31;;;;;;;8.32;1.90;;;;;;;;;;6245925;28;20053;-63
2022/12/27 06:14:33;;;;;;;5.53;1.83;;;;;;;;;;6241670;28;20053;-63
2022/12/27 06:17:33;;;;;;;8.63;1.90;;;;;;;;;;6244231;28;20049;-63
2022/12/27 06:20:34;;;;;;;7.25;1.85;;;;;;;;;;6245519;28;20056;-64
2022/12/27 06:23:36;;;;;;;9.00;1.88;;;;;;;;;;6244157;28;21309;-64
2022/12/27 06:26:37;;;;;;;8.98;2.13;;;;;;;;;;6240861;28;20076;-63
2022/12/27 06:29:38;;;;;;;13.23;2.10;;;;;;;;;;6247265;28;20140;-64
2022/12/27 06:32:38;;;;;;;8.65;2.47;;;;;;;;;;6242973;28;20099;-63
2022/12/27 06:35:39;;;;;;;12.57;3.35;;;;;;;;;;6239004;28;20046;-64
2022/12/27 06:38:40;;;;;;;9.68;2.83;;;;;;;;;;6246679;28;20056;-63
2022/12/27 06:41:41;;;;;;;8.13;2.25;;;;;;;;;;6242662;28;20470;-63
2022/12/27 06:44:41;;;;;;;12.30;2.80;;;;;;;;;;6242915;28;20056;-64
2022/12/27 06:47:42;;;;;;;11.32;2.80;;;;;;;;;;6240583;28;20058;-64
2022/12/27 06:50:43;;;;;;;14.10;4.43;;;;;;;;;;6244369;28;20072;-63
2022/12/27 06:53:44;;;;;;;14.63;3.47;;;;;;;;;;6241827;28;20073;-71
2022/12/27 06:56:45;;;;;;;10.60;3.65;;;;;;;;;;6247414;28;20412;-63
2022/12/27 06:59:45;;;;;;;10.23;3.53;;;;;;;;;;6266521;28;20060;-63
2022/12/27 07:02:46;;;;;;;12.82;3.65;;;;;;;;;;6249495;28;20042;-64
2022/12/27 07:05:47;;;;;;;9.77;3.60;;;;;;;;;;6250250;28;20049;-63
2022/12/27 07:08:48;;;;;;;12.18;4.00;;;;;;;;;;6242420;28;20052;-63
2022/12/27 07:11:52;;;;;;;14.20;3.83;;;;;;;;;;6244183;28;20508;-63
2022/12/27 07:14:53;;;;;;;10.90;3.83;;;;;;;;;;6241171;28;20049;-64
2022/12/27 07:17:53;;;;;;;11.25;3.30;;;;;;;;;;6244025;28;20187;-63
2022/12/27 07:20:54;;;;;;;9.48;3.35;;;;;;;;;;6263225;28;20052;-64
2022/12/27 07:23:56;;;;;;;12.32;4.00;;;;;;;;;;6254012;28;20048;-64
2022/12/27 07:26:57;;;;;;;10.35;3.55;;;;;;;;;;6259849;28;20053;-63
2022/12/27 07:29:57;;;;;;;10.63;3.58;;;;;;;;;;6256576;28;20092;-63
2022/12/27 07:32:58;;;;;;;9.20;3.22;;;;;;;;;;6243703;28;20044;-63
2022/12/27 07:36:00;;;;;;;12.52;3.55;;;;;;;;;;6242738;28;20132;-63
2022/12/27 07:39:00;;;;;;;10.75;4.05;;;;;;;;;;6243843;28;20053;-63
2022/12/27 07:42:01;;;;;;;7.68;3.00;;;;;;;;;;6246788;28;20511;-63
2022/12/27 07:45:01;;;;;;;14.10;3.92;;;;;;;;;;6252368;28;20553;-62
2022/12/27 07:48:03;;;;;;;13.80;3.30;;;;;;;;;;6241612;28;20041;-63
2022/12/27 07:51:03;;;;;;;10.73;3.50;;;;;;;;;;6245242;28;20049;-63
2022/12/27 07:54:04;;;;;;;11.60;3.80;;;;;;;;;;6238440;28;20536;-63
2022/12/27 07:57:05;;;;;;;10.43;3.22;;;;;;;;;;6244929;28;20056;-61
2022/12/27 08:00:06;;;;;;;15.20;3.97;;;;;;;;;;6244418;28;20095;-62
2022/12/27 08:03:07;;;;;;;12.52;3.63;;;;;;;;;;6240973;28;20045;-63
2022/12/27 08:06:19;;;;;;;9.73;3.10;;;;;;;;;;6240816;28;20043;-62
2022/12/27 08:09:26;;;;;;;7.50;3.20;;;;;;;;;;6242668;28;20049;-62
2022/12/27 08:12:27;;;;;;;10.18;3.83;;;;;;;;;;6243927;28;20084;-63
2022/12/27 08:15:28;;;;;;;15.75;3.58;;;;;;;;;;6241087;28;20049;-63
2022/12/27 08:18:29;;;;;;;9.13;2.90;;;;;;;;;;6239399;28;20136;-64
2022/12/27 08:21:29;;;;;;;15.50;3.20;;;;;;;;;;6241127;28;20416;-67
2022/12/27 08:24:31;;;;;;;12.93;3.30;;;;;;;;;;6259303;28;20507;-66
2022/12/27 08:27:31;;;;;;;8.43;3.30;;;;;;;;;;6259242;28;20041;-67
2022/12/27 08:30:33;;;;;;;12.10;2.95;;;;;;;;;;6260916;28;20436;-66
2022/12/27 08:33:33;;;;;;;14.43;3.53;;;;;;;;;;6261791;28;20203;-67
2022/12/27 08:36:34;;;;;;;9.02;2.85;;;;;;;;;;6263826;28;20072;-67
2022/12/27 08:39:34;;;;;;;13.45;3.58;;;;;;;;;;6252620;28;20076;-65
2022/12/27 08:42:35;;;;;;;16.60;3.90;;;;;;;;;;6262095;28;20479;-64
2022/12/27 08:45:37;;;;;;;12.70;4.10;;;;;;;;;;6262663;28;20055;-65
2022/12/27 08:48:38;;;;;;;;;;;;;;;;;;6258038;28;20553;-63
2022/12/27 08:51:38;;;;;;;15.75;3.47;;;;;;;;;;6258274;28;19921;-64
2022/12/27 08:54:39;;;;;;;14.43;3.42;;;;;;;;;;6265530;28;20576;-64
2022/12/27 08:57:39;;;;;;;11.52;3.58;;;;;;;;;;6266916;28;20053;-63
2022/12/27 09:00:40;;;;;;;20.15;3.95;;;;;;;;;;6266419;28;20045;-65
2022/12/27 09:03:41;;;;;;;10.00;3.40;;;;;;;;;;6259271;28;20049;-65
2022/12/27 09:06:41;;;;;;;9.55;3.28;;;;;;;;;;6253569;28;20115;-65
2022/12/27 09:09:42;;;;;;;16.98;3.38;;;;;;;;;;6272341;28;20806;-63
2022/12/27 09:12:44;;;;;;;9.88;2.88;;;;;;;;;;6244869;28;20703;-64
2022/12/27 09:15:44;;;;;;;10.65;3.00;;;;;;;;;;6244700;28;20039;-64
2022/12/27 09:18:51;;;;;;;15.77;3.30;;;;;;;;;;6243628;28;20533;-64
2022/12/27 09:21:51;;;;;;;11.65;3.60;;;;;;;;;;6244691;28;20057;-64
2022/12/27 09:24:52;;;;;;;18.95;3.60;;;;;;;;;;6246364;28;20388;-69
2022/12/27 09:27:53;;;;;;;11.27;3.08;;;;;;;;;;6245305;28;20045;-63
2022/12/27 09:30:54;;;;;;;14.73;3.57;;;;;;;;;;6255145;28;20139;-64
2022/12/27 09:33:56;;;;;;;10.95;3.45;;;;;;;;;;6244317;28;20484;-65
2022/12/27 09:36:56;;;;;;;9.23;3.30;;;;;;;;;;6248419;28;20049;-64
2022/12/27 09:39:57;;;;;;;11.75;2.97;;;;;;;;;;6244401;28;20054;-64
2022/12/27 09:43:11;;;;;;;10.73;2.90;;;;;;;;;;6243099;28;20057;-64
2022/12/27 09:46:22;;;;;;;14.90;3.35;;;;;;;;;;6241825;28;20072;-64
2022/12/27 09:49:32;;;;;;;10.98;3.28;;;;;;;;;;6243696;28;20078;-64
2022/12/27 09:52:44;;;;;;;12.00;3.40;;;;;;;;;;6244897;28;20053;-64
2022/12/27 09:55:48;;;;;;;10.57;3.15;;;;;;;;;;6243541;28;20045;-65
2022/12/27 09:58:54;;;;;;;9.15;2.80;;;;;;;;;;6252487;28;20044;-64
2022/12/27 10:01:56;;;;;;;12.18;2.67;;;;;;;;;;6263238;28;20037;-64
2022/12/27 10:04:58;;;;;;;10.20;2.47;;;;;;;;;;6245841;28;20053;-64
2022/12/27 10:08:27;;;;;;;11.10;2.92;;;;;;;;;;6270285;28;20135;-64
2022/12/27 10:11:54;;;;;;;8.70;3.38;;;;;;;;;;6243476;28;20042;-64
2022/12/27 10:15:17;;;;;;;10.43;2.70;;;;;;;;;;6244231;28;20045;-70
2022/12/27 10:18:36;;;;;;;;;;;;;;;;;;6239150;28;20049;-65
2022/12/27 10:22:08;;;;;;;11.43;3.13;;;;;;;;;;6246353;28;20382;-64
2022/12/27 10:25:14;;;;;;;9.00;2.33;;;;;;;;;;6241147;28;20061;-64
2022/12/27 10:28:21;;;;;;;10.00;2.92;;;;;;;;;;6244367;28;20057;-68
2022/12/27 10:31:22;;;;;;;8.80;2.53;;;;;;;;;;6270564;28;20504;-64
2022/12/27 10:34:23;;;;;;;9.07;2.25;;;;;;;;;;6248744;28;20064;-71
2022/12/27 10:37:24;;;;;;;8.98;2.53;;;;;;;;;;6245202;28;20045;-65
2022/12/27 10:40:38;;;;;;;8.98;2.78;;;;;;;;;;6241396;28;20071;-65
2022/12/27 10:43:41;;;;;;;11.15;2.95;;;;;;;;;;6240698;28;20046;-64
2022/12/27 10:46:47;;;;;;;9.32;3.03;;;;;;;;;;6241107;28;20041;-64
2022/12/27 10:50:10;;;;;;;7.68;2.30;;;;;;;;;;6237140;28;20104;-67
2022/12/27 10:53:37;;;;;;;8.50;2.63;;;;;;;;;;6248075;28;20125;-64
2022/12/27 10:56:40;;;;;;;5.50;1.80;;;;;;;;;;6266485;28;20071;-72
2022/12/27 10:59:41;;;;;;;8.65;2.67;;;;;;;;;;6266527;28;20045;-66
2022/12/27 11:02:55;;;;;;;12.20;2.90;;;;;;;;;;6268337;28;20052;-65
2022/12/27 11:06:06;;;;;;;11.32;2.70;;;;;;;;;;6268503;28;20476;-72
2022/12/27 11:09:36;;;;;;;7.65;2.53;;;;;;;;;;6268403;28;20094;-65
2022/12/27 11:12:52;;;;;;;10.40;2.20;;;;;;;;;;6265649;28;20053;-69
2022/12/27 11:15:55;;;;;;;7.72;2.25;;;;;;;;;;6267951;28;20079;-64
2022/12/27 11:18:59;;;;;;;10.05;2.67;;;;;;;;;;6257770;28;20049;-65
2022/12/27 11:22:04;;;;;;;8.07;2.03;;;;;;;;;;6221006;28;20156;-65
2022/12/27 11:25:13;;;;;;;5.90;1.90;;;;;;;;;;6227544;28;20646;-65
2022/12/27 11:28:28;;;;;;;9.43;2.17;;;;;;;;;;6225379;28;20057;-67
2022/12/27 11:31:40;;;;;;;8.93;2.15;;;;;;;;;;6235571;28;20559;-65
2022/12/27 11:34:44;;;;;;;;;;;;;;;;;;6238053;28;20065;-65
2022/12/27 11:37:47;;;;;;;5.85;2.10;;;;;;;;;;6236206;28;19924;-70
2022/12/27 11:41:06;;;;;;;9.65;2.70;;;;;;;;;;6235633;28;20084;-65
2022/12/27 11:44:19;;;;;;;9.10;2.15;;;;;;;;;;6236697;28;20053;-68
2022/12/27 11:47:52;;;;;;;7.32;2.53;;;;;;;;;;6235548;28;20054;-65
2022/12/27 11:51:19;;;;;;;7.40;2.38;;;;;;;;;;6231808;28;20101;-68
2022/12/27 11:54:48;;;;;;;7.38;2.40;;;;;;;;;;6230343;28;20053;-64
2022/12/27 11:58:07;;;;;;;6.40;1.98;;;;;;;;;;6236881;28;20202;-68
2022/12/27 12:01:20;;;;;;;8.52;2.10;;;;;;;;;;6235379;28;20136;-65
2022/12/27 12:04:39;;;;;;;;;;;;;;;;;;6236928;28;20053;-70
2022/12/27 12:07:46;;;;;;;8.05;2.33;;;;;;;;;;6236455;28;20402;-66
2022/12/27 12:11:12;;;;;;;6.97;2.00;;;;;;;;;;6234800;28;20045;-65
2022/12/27 12:14:32;;;;;;;6.35;2.00;;;;;;;;;;6236160;28;20054;-66
2022/12/27 12:17:49;;;;;;;6.40;2.20;;;;;;;;;;6236134;28;20049;-65
2022/12/27 12:21:09;;;;;;;6.40;1.88;;;;;;;;;;6234144;28;20045;-70
2022/12/27 12:24:47;;;;;;;6.63;2.00;;;;;;;;;;6236959;28;20053;-66
2022/12/27 12:28:27;;;;;;;6.03;1.85;;;;;;;;;;6233642;28;20053;-68
2022/12/27 12:31:52;;;;;;;4.78;2.00;;;;;;;;;;6231720;28;20124;-65
2022/12/27 12:35:11;;;;;;;6.90;2.55;;;;;;;;;;6232980;28;20512;-69
2022/12/27 12:38:11;;;;;;;12.23;4.28;;;;;;;;;;6233286;28;20057;-68
2022/12/27 12:41:33;;;;;;;8.15;2.85;;;;;;;;;;6231760;28;20050;-66
2022/12/27 12:44:55;;;;;;;9.32;2.10;;;;;;;;;;6233357;28;20058;-66
2022/12/27 12:48:05;;;;;;;4.40;1.88;;;;;;;;;;6232660;28;20049;-65
2022/12/27 12:51:33;;;;;;;5.68;2.22;;;;;;;;;;6231818;28;20063;-67
2022/12/27 12:54:33;;;;;;;6.15;2.28;;;;;;;;;;6233136;28;20057;-71
2022/12/27 12:57:50;;;;;;;5.82;1.90;;;;;;;;;;6232874;28;20056;-71
2022/12/27 13:00:54;;;;;;;7.03;1.88;;;;;;;;;;6231455;28;20049;-65
2022/12/27 13:04:10;;;;;;;5.47;2.00;;;;;;;;;;6232431;28;20064;-71
2022/12/27 13:07:27;;;;;;;8.30;2.03;;;;;;;;;;6232545;28;20582;-70
2022/12/27 13:10:45;;;;;;;9.52;2.38;;;;;;;;;;6231246;28;20053;-65
2022/12/27 13:14:08;;;;;;;4.95;1.92;;;;;;;;;;6231676;28;20137;-66
2022/12/27 13:17:24;;;;;;;4.97;2.20;;;;;;;;;;6232530;28;20054;-71
2022/12/27 13:20:48;;;;;;;6.95;2.20;;;;;;;;;;6230825;28;20049;-72
2022/12/27 13:24:00;;;;;;;7.20;2.28;;;;;;;;;;6232612;28;20132;-68
2022/12/27 13:27:34;;;;;;;5.15;1.80;;;;;;;;;;6227979;28;20049;-65
2022/12/27 13:30:44;;;;;;;5.85;2.25;;;;;;;;;;6226411;28;20053;-65
2022/12/27 13:33:56;;;;;;;5.78;2.10;;;;;;;;;;6229831;28;20102;-67
2022/12/27 13:37:21;;;;;;;6.85;2.08;;;;;;;;;;6227934;28;20131;-64
2022/12/27 13:40:44;;;;;;;6.05;2.00;;;;;;;;;;6229171;28;20045;-63
2022/12/27 13:44:26;;;;;;;8.73;2.40;;;;;;;;;;6228546;28;20072;-71
2022/12/27 13:47:49;;;;;;;8.10;2.50;;;;;;;;;;6178849;28;20493;-61
2022/12/27 13:51:02;;;;;;;5.10;1.88;;;;;;;;;;6229340;28;20488;-64
2022/12/27 13:54:21;;;;;;;6.60;2.05;;;;;;;;;;6234466;28;20057;-70
2022/12/27 13:57:34;;;;;;;6.22;1.88;;;;;;;;;;6233460;28;20056;-68
2022/12/27 14:01:00;;;;;;;6.35;2.65;;;;;;;;;;6233007;28;20077;-69
2022/12/27 14:04:22;;;;;;;5.32;2.15;;;;;;;;;;6237031;28;20095;-63
2022/12/27 14:07:34;;;;;;;8.48;3.78;;;;;;;;;;6232535;28;20053;-64
2022/12/27 14:10:38;;;;;;;5.40;2.45;;;;;;;;;;6228375;28;20060;-66
2022/12/27 14:13:42;;;;;;;8.13;2.75;;;;;;;;;;6231289;28;20053;-63
2022/12/27 14:17:10;;;;;;;7.72;3.72;;;;;;;;;;6232838;28;20057;-64
2022/12/27 14:20:20;;;;;;;8.00;2.50;;;;;;;;;;6233638;28;20057;-62
2022/12/27 14:23:41;;;;;;;6.28;3.15;;;;;;;;;;6235540;28;20509;-60
2022/12/27 14:27:24;;;;;;;6.72;2.90;;;;;;;;;;6232296;28;20056;-63
2022/12/27 14:30:48;;;;;;;8.57;2.95;;;;;;;;;;6229160;28;20048;-65
2022/12/27 14:34:26;;;;;;;7.50;3.05;;;;;;;;;;6228725;28;20060;-63
2022/12/27 14:38:04;;;;;;;5.68;2.85;;;;;;;;;;6233203;28;20046;-65
2022/12/27 14:41:26;;;;;;;8.63;3.00;;;;;;;;;;6229628;28;20050;-59
2022/12/27 14:44:44;;;;;;;;;;;;;;;;;;6230817;28;20468;-64
2022/12/27 14:47:59;;;;;;;12.75;3.85;;;;;;;;;;6232433;28;19966;-63
2022/12/27 14:51:26;;;;;;;7.57;2.85;;;;;;;;;;6227589;28;20081;-63
2022/12/27 14:54:58;;;;;;;7.45;2.88;;;;;;;;;;6229898;28;20053;-63
2022/12/27 14:58:36;;;;;;;8.30;3.20;;;;;;;;;;6228780;28;20136;-65
2022/12/27 15:01:55;;;;;;;8.27;3.22;;;;;;;;;;6228880;28;20054;-65
2022/12/27 15:05:10;;;;;;;9.82;3.83;;;;;;;;;;6231031;28;20123;-66
2022/12/27 15:08:26;;;;;;;9.13;3.95;;;;;;;;;;6231534;28;20434;-64
2022/12/27 15:11:39;;;;;;;10.82;3.63;;;;;;;;;;6227188;28;20041;-62
2022/12/27 15:15:09;;;;;;;9.30;3.55;;;;;;;;;;6227088;28;20053;-61
2022/12/27 15:18:42;;;;;;;9.52;3.97;;;;;;;;;;6231488;28;20068;-62
2022/12/27 15:21:56;;;;;;;7.32;3.10;;;;;;;;;;6227426;28;20057;-65
2022/12/27 15:25:23;;;;;;;9.77;3.83;;;;;;;;;;6230567;28;20054;-64
2022/12/27 15:28:44;;;;;;;11.20;4.03;;;;;;;;;;6229353;28;20053;-64
2022/12/27 15:32:04;;;;;;;11.85;4.20;;;;;;;;;;6226603;28;20409;-62
2022/12/27 15:35:22;;;;;;;15.50;5.55;;;;;;;;;;6229039;28;20053;-64
2022/12/27 15:38:45;;;;;;;15.77;7.47;;;;;;;;;;6231314;28;20049;-65
2022/12/27 15:42:01;;;;;;;11.32;4.22;;;;;;;;;;6226449;28;20045;-63
2022/12/27 15:45:28;;;;;;;11.85;4.15;;;;;;;;;;6227592;28;20674;-66
2022/12/27 15:48:28;;;;;;;11.63;3.60;;;;;;;;;;6229031;28;20044;-70
2022/12/27 15:51:56;;;;;;;13.27;3.80;;;;;;;;;;6227247;28;20045;-70
2022/12/27 15:55:21;;;;;;;11.15;3.88;;;;;;;;;;6229976;28;20049;-72
2022/12/27 15:58:23;;;;;;;11.68;4.13;;;;;;;;;;6229338;28;20506;-67
2022/12/27 16:01:28;;;;;;;11.35;3.78;;;;;;;;;;6228667;28;20057;-69
2022/12/27 16:04:45;;;;;;;10.48;4.32;;;;;;;;;;6229542;28;20055;-67
2022/12/27 16:07:49;;;;;;;17.38;4.30;;;;;;;;;;6230078;28;20045;-66
2022/12/27 16:10:50;;;;;;;15.90;4.65;;;;;;;;;;6228612;28;20049;-66
2022/12/27 16:14:25;;;;;;;16.35;5.28;;;;;;;;;;6229926;28;20060;-64
2022/12/27 16:17:44;;;;;;;16.00;6.88;;;;;;;;;;6229458;28;20163;-69
2022/12/27 16:21:04;;;;;;;22.48;8.40;;;;;;;;;;6225459;28;20053;-67
2022/12/27 16:24:14;;;;;;;36.88;15.23;;;;;;;;;;6227602;28;20187;-68
2022/12/27 16:27:28;;;;;;;35.20;17.15;;;;;;;;;;6228614;28;20060;-71
2022/12/27 16:30:38;;;;;;;28.27;13.10;;;;;;;;;;6224644;28;20053;-74
2022/12/27 16:33:40;;;;;;;30.73;10.63;;;;;;;;;;6228803;28;20066;-66
2022/12/27 16:36:45;;;;;;;25.52;9.25;;;;;;;;;;6226200;28;20056;-70
2022/12/27 16:39:45;;;;;;;22.52;8.60;;;;;;;;;;6227664;28;20068;-73
2022/12/27 16:42:52;;;;;;;21.08;9.15;;;;;;;;;;6226068;28;20077;-66
2022/12/27 16:46:40;;;;;;;22.10;8.07;;;;;;;;;;6228690;28;20136;-67
2022/12/27 16:50:18;;;;;;;18.23;7.95;;;;;;;;;;6216746;28;21331;-64
2022/12/27 16:53:36;;;;;;;19.92;7.97;;;;;;;;;;6229562;28;20045;-68
2022/12/27 16:56:40;;;;;;;23.30;8.07;;;;;;;;;;6229175;28;20235;-68
2022/12/27 16:59:59;;;;;;;21.48;7.78;;;;;;;;;;6226539;28;20049;-68
2022/12/27 17:03:17;;;;;;;26.98;7.75;;;;;;;;;;6227002;28;20053;-66
2022/12/27 17:06:20;;;;;;;25.48;9.02;;;;;;;;;;6229650;28;20049;-63
2022/12/27 17:09:21;;;;;;;37.45;11.38;;;;;;;;;;6227232;28;20456;-65
2022/12/27 17:12:23;;;;;;;31.25;10.57;;;;;;;;;;6229476;28;20488;-65
2022/12/27 17:15:25;;;;;;;33.63;9.70;;;;;;;;;;6229715;28;20846;-66
2022/12/27 17:18:33;;;;;;;27.87;10.63;;;;;;;;;;6228713;28;20975;-65
2022/12/27 17:21:37;;;;;;;23.42;7.95;;;;;;;;;;6226842;28;20313;-62
2022/12/27 17:24:37;;;;;;;23.13;7.93;;;;;;;;;;6224756;28;20057;-66
2022/12/27 17:27:50;;;;;;;19.85;7.05;;;;;;;;;;6230819;28;20534;-67
2022/12/27 17:31:04;;;;;;;23.92;8.13;;;;;;;;;;6232288;28;20061;-67
2022/12/27 17:34:33;;;;;;;19.88;7.85;;;;;;;;;;6232304;28;20061;-68
2022/12/27 17:37:44;;;;;;;20.75;8.32;;;;;;;;;;6233208;28;20054;-68
2022/12/27 17:41:14;;;;;;;35.57;18.10;;;;;;;;;;6232187;28;20493;-67
2022/12/27 17:44:38;;;;;;;40.25;20.60;;;;;;;;;;6215947;28;20064;-66
2022/12/27 17:47:57;;;;;;;34.97;14.98;;;;;;;;;;6233195;28;20658;-62
2022/12/27 17:51:06;;;;;;;27.35;9.35;;;;;;;;;;6230316;28;20099;-63
2022/12/27 17:57:53;;;;;;;28.98;13.55;;;;;;;;;;6230549;28;20111;-63
2022/12/27 18:00:58;;;;;;;35.35;16.73;;;;;;;;;;6231692;28;20057;-66
2022/12/27 18:03:59;;;;;;;31.00;11.38;;;;;;;;;;6232640;28;20057;-63
2022/12/27 18:07:02;;;;;;;21.50;9.98;;;;;;;;;;6232428;28;20052;-64
2022/12/27 18:10:06;;;;;;;22.77;8.30;;;;;;;;;;6231169;28;20491;-65
2022/12/27 18:13:17;;;;;;;21.38;8.20;;;;;;;;;;6230543;28;20059;-67
2022/12/27 18:16:21;;;;;;;20.92;7.88;;;;;;;;;;6231582;28;20056;-66
2022/12/27 18:19:28;;;;;;;21.20;8.55;;;;;;;;;;6230714;28;20057;-65
2022/12/27 18:22:28;;;;;;;21.65;8.50;;;;;;;;;;6231878;28;20049;-68
2022/12/27 18:25:32;;;;;;;23.98;11.65;;;;;;;;;;6231532;28;20048;-64
2022/12/27 18:28:33;;;;;;;25.55;10.80;;;;;;;;;;6232219;28;20056;-65
2022/12/27 18:31:48;;;;;;;22.17;8.45;;;;;;;;;;6231214;28;20441;-65
2022/12/27 18:34:56;;;;;;;21.92;8.90;;;;;;;;;;6232200;28;20057;-67
2022/12/27 18:37:57;;;;;;;21.05;8.65;;;;;;;;;;6231778;28;20815;-67
2022/12/27 18:41:05;;;;;;;21.83;7.80;;;;;;;;;;6229500;28;20073;-68
2022/12/27 18:44:14;;;;;;;22.63;7.90;;;;;;;;;;6232980;28;20072;-67
2022/12/27 18:47:19;;;;;;;21.90;7.72;;;;;;;;;;6231454;28;20997;-68
2022/12/27 18:50:26;;;;;;;24.83;9.13;;;;;;;;;;6230588;28;20127;-67
2022/12/27 18:53:35;;;;;;;27.50;12.00;;;;;;;;;;6232905;28;20045;-68
2022/12/27 18:56:42;;;;;;;24.67;9.45;;;;;;;;;;6232461;28;20053;-67
2022/12/27 19:00:11;;;;;;;25.45;10.57;;;;;;;;;;6229753;28;20053;-66
2022/12/27 19:03:16;;;;;;;21.55;8.68;;;;;;;;;;6230292;28;20484;-66
2022/12/27 19:06:17;;;;;;;22.17;7.65;;;;;;;;;;6228932;28;20073;-66
2022/12/27 19:09:20;;;;;;;25.30;8.88;;;;;;;;;;6227468;28;20056;-67
2022/12/27 19:12:35;;;;;;;18.95;7.10;;;;;;;;;;6232289;28;20042;-67
2022/12/27 19:15:41;;;;;;;27.70;10.43;;;;;;;;;;6230693;28;20533;-67
2022/12/27 19:18:49;;;;;;;27.50;11.32;;;;;;;;;;6230250;28;20057;-67
2022/12/27 19:21:51;;;;;;;26.92;9.48;;;;;;;;;;6216819;28;20932;-67
2022/12/27 19:25:04;;;;;;;24.35;9.15;;;;;;;;;;6229274;28;20124;-66
2022/12/27 19:28:11;;;;;;;19.05;7.97;;;;;;;;;;6225116;28;20083;-66
2022/12/27 19:31:17;;;;;;;23.73;8.02;;;;;;;;;;6226437;28;20049;-67
2022/12/27 19:34:18;;;;;;;37.38;12.98;;;;;;;;;;6228022;28;20119;-66
2022/12/27 19:37:19;;;;;;;44.88;16.73;;;;;;;;;;6224665;28;20103;-64
2022/12/27 19:40:22;;;;;;;27.77;12.85;;;;;;;;;;6225684;28;20038;-66
2022/12/27 19:43:25;;;;;;;22.23;8.75;;;;;;;;;;6218712;28;20052;-65
2022/12/27 19:46:25;;;;;;;38.30;17.50;;;;;;;;;;6222947;28;20083;-66
2022/12/27 19:49:26;;;;;;;28.58;10.95;;;;;;;;;;6223700;28;20049;-64
2022/12/27 19:52:27;;;;;;;25.13;12.05;;;;;;;;;;6222195;28;20049;-66
2022/12/27 19:55:27;;;;;;;21.63;9.00;;;;;;;;;;6223032;28;20420;-62
2022/12/27 19:58:29;;;;;;;29.02;10.35;;;;;;;;;;6220767;28;20081;-62
2022/12/27 20:01:30;;;;;;;27.00;9.32;;;;;;;;;;6216316;28;20060;-66
2022/12/27 20:04:31;;;;;;;24.40;9.32;;;;;;;;;;6218636;28;20053;-67
2022/12/27 20:07:32;;;;;;;24.88;10.00;;;;;;;;;;6220732;28;20103;-66
2022/12/27 20:10:33;;;;;;;27.35;10.70;;;;;;;;;;6226039;28;20053;-67
2022/12/27 20:13:33;;;;;;;30.00;11.60;;;;;;;;;;6228876;28;20152;-67
2022/12/27 20:16:34;;;;;;;26.15;10.05;;;;;;;;;;6229623;28;20049;-66
2022/12/27 20:19:35;;;;;;;29.42;11.20;;;;;;;;;;6224878;28;20041;-67
2022/12/27 20:22:36;;;;;;;28.13;9.93;;;;;;;;;;6220861;28;21226;-63
2022/12/27 20:25:39;;;;;;;24.52;8.80;;;;;;;;;;6220083;28;20514;-66